createdAt,value
2023-05-13T00:01:23.010Z,7.30
2023-05-13T00:03:49.713Z,7.20
2023-05-13T00:06:16.618Z,7.20
2023-05-13T00:08:43.348Z,7.20
2023-05-13T00:11:10.152Z,7.20
2023-05-13T00:13:37.310Z,7.20
2023-05-13T00:16:04.183Z,7.20
2023-05-13T00:18:30.816Z,7.10
2023-05-13T00:20:57.426Z,7.10
2023-05-13T00:23:24.025Z,7.00
2023-05-13T00:25:50.706Z,7.00
2023-05-13T00:28:17.463Z,7.00
2023-05-13T00:30:45.492Z,7.00
2023-05-13T00:33:12.275Z,6.90
2023-05-13T00:35:38.913Z,6.90
2023-05-13T00:38:05.650Z,6.90
2023-05-13T00:40:36.695Z,6.90
2023-05-13T00:43:03.295Z,6.80
2023-05-13T00:45:30.117Z,6.80
2023-05-13T00:47:56.877Z,6.70
2023-05-13T00:50:23.934Z,6.50
2023-05-13T00:52:51.208Z,6.50
2023-05-13T00:55:17.964Z,6.60
2023-05-13T00:57:44.780Z,6.60
2023-05-13T01:00:12.174Z,6.60
2023-05-13T01:02:56.570Z,6.60
2023-05-13T01:05:35.208Z,6.60
2023-05-13T01:08:22.488Z,6.60
2023-05-13T01:10:56.861Z,6.60
2023-05-13T01:13:26.288Z,6.60
2023-05-13T01:16:11.738Z,6.60
2023-05-13T01:18:44.464Z,6.60
2023-05-13T01:21:12.338Z,6.60
2023-05-13T01:23:38.998Z,6.50
2023-05-13T01:26:05.703Z,6.50
2023-05-13T01:28:32.401Z,6.50
2023-05-13T01:30:59.124Z,6.50
2023-05-13T01:33:26.363Z,6.50
2023-05-13T01:35:53.305Z,6.50
2023-05-13T01:38:21.395Z,6.40
2023-05-13T01:40:48.401Z,6.40
2023-05-13T01:43:15.144Z,6.40
2023-05-13T01:45:41.751Z,6.40
2023-05-13T01:48:08.481Z,6.40
2023-05-13T01:50:35.187Z,6.40
2023-05-13T01:53:01.901Z,6.40
2023-05-13T01:55:28.553Z,6.40
2023-05-13T01:57:55.462Z,6.40
2023-05-13T02:00:22.775Z,6.40
2023-05-13T02:02:49.722Z,6.50
2023-05-13T02:05:16.701Z,6.50
2023-05-13T02:07:43.327Z,6.60
2023-05-13T02:10:10.466Z,6.60
2023-05-13T02:12:37.083Z,6.60
2023-05-13T02:15:04.004Z,6.60
2023-05-13T02:17:30.604Z,6.70
2023-05-13T02:19:57.262Z,6.70
2023-05-13T02:22:24.031Z,6.70
2023-05-13T02:24:50.788Z,6.70
2023-05-13T02:27:17.405Z,6.70
2023-05-13T02:29:44.003Z,6.70
2023-05-13T02:32:10.716Z,6.70
2023-05-13T02:34:37.570Z,6.70
2023-05-13T02:37:04.414Z,6.70
2023-05-13T02:39:31.082Z,6.80
2023-05-13T02:41:57.870Z,6.80
2023-05-13T02:44:24.494Z,6.70
2023-05-13T02:46:51.281Z,6.80
2023-05-13T02:49:17.877Z,6.90
2023-05-13T02:51:46.817Z,6.90
2023-05-13T02:54:13.623Z,6.90
2023-05-13T02:56:40.377Z,6.90
2023-05-13T02:59:06.945Z,7.00
2023-05-13T03:01:33.631Z,7.00
2023-05-13T03:04:00.291Z,7.10
2023-05-13T03:06:27.069Z,7.10
2023-05-13T03:08:53.667Z,7.10
2023-05-13T03:11:21.114Z,7.20
2023-05-13T03:13:47.730Z,7.20
2023-05-13T03:16:14.447Z,7.30
2023-05-13T03:18:41.124Z,7.30
2023-05-13T03:21:07.754Z,7.30
2023-05-13T03:23:34.343Z,7.40
2023-05-13T03:26:02.066Z,7.40
2023-05-13T03:28:28.841Z,7.40
2023-05-13T03:30:55.645Z,7.40
2023-05-13T03:33:22.635Z,7.50
2023-05-13T03:35:49.672Z,7.50
2023-05-13T03:38:16.413Z,7.60
2023-05-13T03:40:43.080Z,7.60
2023-05-13T03:43:09.831Z,7.60
2023-05-13T03:45:36.494Z,7.70
2023-05-13T03:48:03.585Z,7.70
2023-05-13T03:50:30.395Z,7.70
2023-05-13T03:52:57.051Z,7.80
2023-05-13T03:55:23.894Z,7.80
2023-05-13T03:57:50.562Z,7.90
2023-05-13T04:00:17.472Z,7.90
2023-05-13T04:02:44.227Z,7.90
2023-05-13T04:05:13.369Z,8.00
2023-05-13T04:07:40.913Z,8.00
2023-05-13T04:10:08.440Z,8.00
2023-05-13T04:12:35.046Z,8.10
2023-05-13T04:15:01.712Z,8.10
2023-05-13T04:17:28.818Z,8.10
2023-05-13T04:19:55.855Z,8.10
2023-05-13T04:22:24.225Z,8.10
2023-05-13T04:24:56.449Z,8.20
2023-05-13T04:27:24.237Z,8.20
2023-05-13T04:29:50.944Z,8.20
2023-05-13T04:32:21.839Z,8.30
2023-05-13T04:34:49.557Z,8.40
2023-05-13T04:37:16.532Z,8.40
2023-05-13T04:39:46.426Z,8.40
2023-05-13T04:42:16.959Z,8.50
2023-05-13T04:44:44.123Z,8.60
2023-05-13T04:47:11.320Z,8.60
2023-05-13T04:49:37.998Z,8.60
2023-05-13T04:52:07.089Z,8.70
2023-05-13T04:54:35.670Z,8.70
2023-05-13T04:57:02.972Z,8.80
2023-05-13T04:59:29.651Z,8.90
2023-05-13T05:01:56.327Z,8.90
2023-05-13T05:04:23.128Z,9.00
2023-05-13T05:06:49.820Z,9.00
2023-05-13T05:09:17.712Z,9.10
2023-05-13T05:11:50.023Z,9.20
2023-05-13T05:14:17.122Z,9.20
2023-05-13T05:16:43.831Z,9.30
2023-05-13T05:19:10.589Z,9.30
2023-05-13T05:21:37.553Z,9.40
2023-05-13T05:24:05.165Z,9.50
2023-05-13T05:26:31.782Z,9.50
2023-05-13T05:28:58.471Z,9.50
2023-05-13T05:31:26.947Z,9.60
2023-05-13T05:33:53.742Z,9.60
2023-05-13T05:36:20.722Z,9.70
2023-05-13T05:38:47.375Z,9.80
2023-05-13T05:41:14.187Z,9.80
2023-05-13T05:43:40.786Z,9.90
2023-05-13T05:46:07.510Z,9.90
2023-05-13T05:48:34.919Z,9.90
2023-05-13T05:51:01.711Z,10.00
2023-05-13T05:53:28.391Z,10.00
2023-05-13T05:55:55.023Z,10.10
2023-05-13T05:58:21.700Z,10.10
2023-05-13T06:00:48.381Z,10.20
2023-05-13T06:03:15.344Z,10.20
2023-05-13T06:05:42.426Z,10.30
2023-05-13T06:08:09.038Z,10.30
2023-05-13T06:10:35.778Z,10.40
2023-05-13T06:13:02.365Z,10.50
2023-05-13T06:15:29.006Z,10.50
2023-05-13T06:17:55.964Z,10.60
2023-05-13T06:20:23.285Z,10.70
2023-05-13T06:22:50.131Z,10.70
2023-05-13T06:25:16.885Z,10.80
2023-05-13T06:27:43.465Z,10.80
2023-05-13T06:30:10.722Z,10.80
2023-05-13T06:32:38.188Z,10.80
2023-05-13T06:35:07.939Z,10.80
2023-05-13T06:37:34.606Z,10.80
2023-05-13T06:40:01.291Z,10.80
2023-05-13T06:42:27.881Z,10.80
2023-05-13T06:44:54.505Z,10.80
2023-05-13T06:47:23.162Z,10.80
2023-05-13T06:49:50.541Z,10.80
2023-05-13T06:52:17.175Z,10.90
2023-05-13T06:54:43.779Z,10.90
2023-05-13T06:57:10.515Z,11.00
2023-05-13T06:59:37.295Z,11.00
2023-05-13T07:02:04.518Z,11.00
2023-05-13T07:04:31.288Z,11.00
2023-05-13T07:06:57.894Z,11.10
2023-05-13T07:09:24.583Z,11.10
2023-05-13T07:11:51.260Z,11.10
2023-05-13T07:14:17.843Z,11.10
2023-05-13T07:16:44.470Z,11.20
2023-05-13T07:19:11.147Z,11.20
2023-05-13T07:21:38.283Z,11.20
2023-05-13T07:24:05.354Z,11.20
2023-05-13T07:26:32.419Z,11.20
2023-05-13T07:28:59.529Z,11.20
2023-05-13T07:31:26.554Z,11.20
2023-05-13T07:33:53.364Z,11.20
2023-05-13T07:36:19.990Z,11.30
2023-05-13T07:38:46.616Z,11.30
2023-05-13T07:41:13.381Z,11.30
2023-05-13T07:43:40.782Z,11.30
2023-05-13T07:46:07.421Z,11.30
2023-05-13T07:48:34.088Z,11.30
2023-05-13T07:51:01.343Z,11.40
2023-05-13T07:53:28.061Z,11.40
2023-05-13T07:55:54.759Z,11.40
2023-05-13T07:58:21.706Z,11.40
2023-05-13T08:00:49.471Z,11.50
2023-05-13T08:03:16.880Z,11.50
2023-05-13T08:05:43.730Z,11.60
2023-05-13T08:08:10.453Z,11.50
2023-05-13T08:10:37.177Z,11.50
2023-05-13T08:13:03.814Z,11.50
2023-05-13T08:15:30.508Z,11.60
2023-05-13T08:17:57.244Z,11.70
2023-05-13T08:20:29.530Z,11.70
2023-05-13T08:23:00.983Z,11.80
2023-05-13T08:25:27.627Z,11.80
2023-05-13T08:27:54.289Z,11.90
2023-05-13T08:30:20.965Z,11.90
2023-05-13T08:32:47.953Z,11.90
2023-05-13T08:35:14.630Z,12.00
2023-05-13T08:37:41.333Z,12.10
2023-05-13T08:40:09.907Z,12.20
2023-05-13T08:42:39.911Z,12.40
2023-05-13T08:45:08.803Z,12.60
2023-05-13T08:47:57.632Z,12.80
2023-05-13T08:50:25.435Z,13.00
2023-05-13T08:52:56.084Z,13.00
2023-05-13T08:55:24.140Z,13.00
2023-05-13T08:57:51.678Z,13.10
2023-05-13T09:00:20.649Z,13.10
2023-05-13T09:02:49.806Z,13.00
2023-05-13T09:05:17.119Z,13.00
2023-05-13T09:07:43.959Z,13.00
2023-05-13T09:10:11.055Z,12.90
2023-05-13T09:12:54.720Z,12.80
2023-05-13T09:15:24.237Z,12.70
2023-05-13T09:18:09.976Z,12.60
2023-05-13T09:20:37.248Z,12.60
2023-05-13T09:23:05.563Z,12.70
2023-05-13T09:25:33.102Z,12.70
2023-05-13T09:28:01.905Z,12.80
2023-05-13T09:30:32.758Z,12.80
2023-05-13T09:33:12.465Z,12.70
2023-05-13T09:35:41.465Z,12.80
2023-05-13T09:38:18.557Z,12.80
2023-05-13T09:41:01.670Z,12.80
2023-05-13T09:43:32.458Z,12.90
2023-05-13T09:46:04.561Z,13.00
2023-05-13T09:48:34.820Z,13.10
2023-05-13T09:51:01.496Z,13.10
2023-05-13T09:53:28.781Z,13.10
2023-05-13T09:55:57.416Z,13.10
2023-05-13T09:58:25.789Z,13.10
2023-05-13T10:00:52.882Z,13.00
2023-05-13T10:03:19.945Z,13.20
2023-05-13T10:05:48.411Z,13.40
2023-05-13T10:08:15.441Z,13.50
2023-05-13T10:10:45.616Z,13.50
2023-05-13T10:13:16.191Z,13.50
2023-05-13T10:15:50.455Z,13.50
2023-05-13T10:18:18.431Z,13.50
2023-05-13T10:20:46.182Z,13.50
2023-05-13T10:23:13.216Z,13.40
2023-05-13T10:25:41.421Z,13.40
2023-05-13T10:28:09.023Z,13.40
2023-05-13T10:30:36.321Z,13.40
2023-05-13T10:33:04.293Z,13.40
2023-05-13T10:35:38.536Z,13.50
2023-05-13T10:38:52.110Z,13.60
2023-05-13T10:41:37.820Z,13.80
2023-05-13T10:44:05.528Z,13.80
2023-05-13T10:46:34.462Z,13.80
2023-05-13T10:49:01.158Z,13.90
2023-05-13T10:51:27.993Z,14.00
2023-05-13T10:53:57.751Z,14.00
2023-05-13T10:56:26.810Z,14.10
2023-05-13T10:59:02.287Z,14.30
2023-05-13T11:01:43.450Z,14.40
2023-05-13T11:04:19.963Z,14.40
2023-05-13T11:06:49.851Z,14.50
2023-05-13T11:09:30.834Z,14.50
2023-05-13T11:11:59.717Z,14.60
2023-05-13T11:14:27.904Z,14.60
2023-05-13T11:17:06.854Z,14.60
2023-05-13T11:19:39.375Z,14.70
2023-05-13T11:22:12.131Z,14.70
2023-05-13T11:24:39.964Z,14.60
2023-05-13T11:27:18.417Z,14.60
2023-05-13T11:29:50.635Z,14.50
2023-05-13T11:32:52.973Z,14.40
2023-05-13T11:35:23.634Z,14.30
2023-05-13T11:37:50.837Z,14.30
2023-05-13T11:40:24.875Z,14.20
2023-05-13T11:42:52.191Z,14.10
2023-05-13T11:45:20.540Z,14.00
2023-05-13T11:47:47.583Z,13.90
2023-05-13T11:50:21.735Z,13.90
2023-05-13T11:52:56.068Z,13.90
2023-05-13T11:55:35.054Z,13.90
2023-05-13T11:58:02.357Z,14.10
2023-05-13T12:00:29.925Z,14.30
2023-05-13T12:02:57.303Z,14.60
2023-05-13T12:05:24.956Z,14.80
2023-05-13T12:07:55.987Z,15.00
2023-05-13T12:10:23.206Z,15.10
2023-05-13T12:12:50.329Z,15.40
2023-05-13T12:15:18.340Z,15.70
2023-05-13T12:17:45.848Z,16.00
2023-05-13T12:20:23.256Z,16.20
2023-05-13T12:22:52.196Z,16.30
2023-05-13T12:25:38.896Z,16.50
2023-05-13T12:28:18.397Z,16.60
2023-05-13T12:30:53.730Z,16.60
2023-05-13T12:33:25.344Z,16.60
2023-05-13T12:35:54.555Z,16.80
2023-05-13T12:38:23.993Z,17.00
2023-05-13T12:40:52.309Z,17.30
2023-05-13T12:43:20.080Z,17.30
2023-05-13T12:45:51.754Z,17.40
2023-05-13T12:48:23.545Z,17.40
2023-05-13T12:50:51.364Z,17.50
2023-05-13T12:53:18.009Z,17.70
2023-05-13T12:55:44.650Z,17.70
2023-05-13T12:58:12.990Z,17.70
2023-05-13T13:00:39.859Z,17.60
2023-05-13T13:03:07.910Z,17.40
2023-05-13T13:05:34.989Z,17.30
2023-05-13T13:08:02.215Z,17.20
2023-05-13T13:10:29.072Z,17.10
2023-05-13T13:12:55.658Z,17.00
2023-05-13T13:15:22.464Z,16.60
2023-05-13T13:17:49.336Z,16.30
2023-05-13T13:20:16.161Z,16.10
2023-05-13T13:22:42.834Z,15.80
2023-05-13T13:25:09.762Z,15.70
2023-05-13T13:27:36.407Z,15.60
2023-05-13T13:30:03.285Z,15.60
2023-05-13T13:32:29.958Z,15.50
2023-05-13T13:34:58.197Z,15.60
2023-05-13T13:37:24.880Z,15.50
2023-05-13T13:39:51.602Z,15.50
2023-05-13T13:42:18.244Z,15.60
2023-05-13T13:44:45.003Z,15.70
2023-05-13T13:47:11.728Z,15.70
2023-05-13T13:49:38.332Z,15.80
2023-05-13T13:52:05.138Z,15.90
2023-05-13T13:54:31.848Z,16.00
2023-05-13T13:56:58.837Z,16.10
2023-05-13T13:59:25.548Z,16.20
2023-05-13T14:01:53.737Z,16.30
2023-05-13T14:04:23.799Z,16.20
2023-05-13T14:06:53.183Z,16.10
2023-05-13T14:09:19.793Z,16.10
2023-05-13T14:11:46.576Z,15.90
2023-05-13T14:14:13.460Z,15.80
2023-05-13T14:16:40.262Z,15.80
2023-05-13T14:19:06.916Z,15.70
2023-05-13T14:21:33.620Z,15.60
2023-05-13T14:24:00.234Z,15.60
2023-05-13T14:26:27.085Z,15.60
2023-05-13T14:29:00.359Z,15.60
2023-05-13T14:31:27.010Z,15.70
2023-05-13T14:33:53.622Z,15.80
2023-05-13T14:36:22.326Z,15.90
2023-05-13T14:38:48.945Z,16.00
2023-05-13T14:41:20.666Z,16.20
2023-05-13T14:43:47.537Z,16.20
2023-05-13T14:46:14.864Z,16.40
2023-05-13T14:48:41.585Z,16.50
2023-05-13T14:51:08.526Z,16.50
2023-05-13T14:53:35.261Z,16.60
2023-05-13T14:56:02.236Z,16.50
2023-05-13T14:58:29.076Z,16.50
2023-05-13T15:00:55.962Z,16.50
2023-05-13T15:03:22.687Z,16.40
2023-05-13T15:05:50.095Z,16.40
2023-05-13T15:08:16.984Z,16.40
2023-05-13T15:10:43.610Z,16.40
2023-05-13T15:13:10.274Z,16.50
2023-05-13T15:15:36.899Z,16.60
2023-05-13T15:18:03.750Z,16.60
2023-05-13T15:20:30.513Z,16.70
2023-05-13T15:22:57.733Z,16.80
2023-05-13T15:25:24.509Z,16.80
2023-05-13T15:27:51.304Z,16.80
2023-05-13T15:30:17.942Z,16.70
2023-05-13T15:32:44.614Z,16.50
2023-05-13T15:35:11.397Z,16.30
2023-05-13T15:37:38.036Z,16.20
2023-05-13T15:40:05.455Z,16.00
2023-05-13T15:42:32.197Z,15.90
2023-05-13T15:44:58.877Z,15.80
2023-05-13T15:47:25.710Z,15.70
2023-05-13T15:49:54.069Z,15.60
2023-05-13T15:52:21.114Z,15.60
2023-05-13T15:54:47.772Z,15.40
2023-05-13T15:57:14.859Z,15.30
2023-05-13T15:59:41.506Z,15.20
2023-05-13T16:02:08.283Z,15.10
2023-05-13T16:04:35.082Z,15.10
2023-05-13T16:07:01.750Z,15.00
2023-05-13T16:09:28.374Z,14.90
2023-05-13T16:11:55.447Z,14.90
2023-05-13T16:14:22.057Z,14.90
2023-05-13T16:16:48.749Z,14.90
2023-05-13T16:19:15.546Z,15.00
2023-05-13T16:21:42.320Z,15.00
2023-05-13T16:24:09.005Z,15.00
2023-05-13T16:26:36.054Z,15.00
2023-05-13T16:29:02.933Z,15.10
2023-05-13T16:31:29.572Z,15.10
2023-05-13T16:33:56.404Z,15.10
2023-05-13T16:36:23.059Z,15.10
2023-05-13T16:38:49.900Z,15.10
2023-05-13T16:41:16.529Z,15.20
2023-05-13T16:43:43.154Z,15.20
2023-05-13T16:46:09.739Z,15.20
2023-05-13T16:48:36.686Z,15.20
2023-05-13T16:51:03.952Z,15.20
2023-05-13T16:53:30.759Z,15.20
2023-05-13T16:55:57.371Z,15.20
2023-05-13T16:58:24.051Z,15.20
2023-05-13T17:00:50.782Z,15.20
2023-05-13T17:03:17.586Z,15.20
2023-05-13T17:05:44.449Z,15.30
2023-05-13T17:08:11.141Z,15.40
2023-05-13T17:10:37.748Z,15.30
2023-05-13T17:13:04.364Z,15.30
2023-05-13T17:15:31.049Z,15.40
2023-05-13T17:17:57.726Z,15.30
2023-05-13T17:20:24.614Z,15.20
2023-05-13T17:22:51.351Z,15.10
2023-05-13T17:25:18.080Z,14.90
2023-05-13T17:27:44.738Z,14.90
2023-05-13T17:30:11.997Z,14.80
2023-05-13T17:32:38.636Z,14.70
2023-05-13T17:35:05.985Z,14.60
2023-05-13T17:37:32.603Z,14.60
2023-05-13T17:40:01.332Z,14.50
2023-05-13T17:42:28.972Z,14.50
2023-05-13T17:44:55.787Z,14.40
2023-05-13T17:47:22.477Z,14.40
2023-05-13T17:49:49.114Z,14.30
2023-05-13T17:52:15.771Z,14.30
2023-05-13T17:54:42.364Z,14.20
2023-05-13T17:57:10.911Z,14.10
2023-05-13T17:59:37.733Z,14.10
2023-05-13T18:02:04.494Z,14.00
2023-05-13T18:04:31.247Z,13.90
2023-05-13T18:06:57.939Z,13.90
2023-05-13T18:09:24.592Z,13.80
2023-05-13T18:11:51.236Z,13.70
2023-05-13T18:14:17.856Z,13.60
2023-05-13T18:16:44.584Z,13.50
2023-05-13T18:19:11.310Z,13.40
2023-05-13T18:21:38.039Z,13.40
2023-05-13T18:24:05.126Z,13.30
2023-05-13T18:26:31.818Z,13.20
2023-05-13T18:28:58.596Z,13.20
2023-05-13T18:31:25.317Z,13.10
2023-05-13T18:33:52.056Z,13.00
2023-05-13T18:36:18.663Z,13.00
2023-05-13T18:38:47.700Z,12.90
2023-05-13T18:41:14.346Z,12.80
2023-05-13T18:43:41.004Z,12.70
2023-05-13T18:46:07.803Z,12.70
2023-05-13T18:48:34.416Z,12.60
2023-05-13T18:51:01.047Z,12.60
2023-05-13T18:53:27.674Z,12.50
2023-05-13T18:55:54.440Z,12.50
2023-05-13T18:58:21.143Z,12.40
2023-05-13T19:00:47.780Z,12.40
2023-05-13T19:03:15.135Z,12.30
2023-05-13T19:05:41.882Z,12.20
2023-05-13T19:08:08.472Z,12.20
2023-05-13T19:10:39.616Z,12.20
2023-05-13T19:13:07.318Z,12.10
2023-05-13T19:15:34.097Z,12.00
2023-05-13T19:18:00.960Z,12.00
2023-05-13T19:20:27.755Z,11.90
2023-05-13T19:22:54.373Z,11.80
2023-05-13T19:25:21.027Z,11.80
2023-05-13T19:27:49.282Z,11.70
2023-05-13T19:30:15.936Z,11.70
2023-05-13T19:32:43.502Z,11.70
2023-05-13T19:35:10.831Z,11.60
2023-05-13T19:37:37.573Z,11.60
2023-05-13T19:40:04.785Z,11.60
2023-05-13T19:42:31.567Z,11.50
2023-05-13T19:44:58.252Z,11.40
2023-05-13T19:47:26.767Z,11.40
2023-05-13T19:49:53.828Z,11.30
2023-05-13T19:52:20.723Z,11.20
2023-05-13T19:54:47.353Z,11.20
2023-05-13T19:57:14.006Z,11.10
2023-05-13T19:59:41.713Z,11.00
2023-05-13T20:02:08.811Z,10.90
2023-05-13T20:04:35.592Z,10.80
2023-05-13T20:07:02.215Z,10.80
2023-05-13T20:09:28.826Z,10.70
2023-05-13T20:11:55.512Z,10.60
2023-05-13T20:14:23.180Z,10.50
2023-05-13T20:16:49.899Z,10.40
2023-05-13T20:19:16.524Z,10.40
2023-05-13T20:21:43.461Z,10.30
2023-05-13T20:24:10.160Z,10.30
2023-05-13T20:26:36.790Z,10.20
2023-05-13T20:29:03.903Z,10.20
2023-05-13T20:31:30.539Z,10.10
2023-05-13T20:33:58.354Z,10.00
2023-05-13T20:36:24.965Z,10.00
2023-05-13T20:38:51.545Z,9.90
2023-05-13T20:41:18.410Z,9.90
2023-05-13T20:43:45.033Z,9.90
2023-05-13T20:46:16.534Z,9.80
2023-05-13T20:48:43.401Z,9.70
2023-05-13T20:51:10.067Z,9.70
2023-05-13T20:53:37.138Z,9.60
2023-05-13T20:56:04.054Z,9.60
2023-05-13T20:58:31.246Z,9.50
2023-05-13T21:00:58.095Z,9.50
2023-05-13T21:03:25.049Z,9.50
2023-05-13T21:05:51.742Z,9.50
2023-05-13T21:08:18.394Z,9.40
2023-05-13T21:10:44.985Z,9.40
2023-05-13T21:13:11.675Z,9.30
2023-05-13T21:15:38.564Z,9.30
2023-05-13T21:18:05.307Z,9.30
2023-05-13T21:20:32.715Z,9.20
2023-05-13T21:23:00.806Z,9.20
2023-05-13T21:25:27.609Z,9.20
2023-05-13T21:27:54.280Z,9.10
2023-05-13T21:30:21.211Z,9.10
2023-05-13T21:32:48.111Z,9.10
2023-05-13T21:35:14.893Z,9.10
2023-05-13T21:37:41.556Z,9.10
2023-05-13T21:40:08.935Z,9.10
2023-05-13T21:42:35.724Z,9.10
2023-05-13T21:45:03.075Z,9.10
2023-05-13T21:47:29.738Z,9.10
2023-05-13T21:49:56.504Z,9.10
2023-05-13T21:52:23.165Z,9.20
2023-05-13T21:54:49.795Z,9.10
2023-05-13T21:57:16.740Z,9.10
2023-05-13T21:59:43.380Z,9.10
2023-05-13T22:02:10.214Z,9.10
2023-05-13T22:04:36.924Z,9.00
2023-05-13T22:07:03.702Z,9.00
2023-05-13T22:09:30.409Z,9.00
2023-05-13T22:11:57.068Z,9.00
2023-05-13T22:14:23.677Z,9.00
2023-05-13T22:17:07.232Z,9.00
2023-05-13T22:19:35.569Z,9.00
2023-05-13T22:22:02.225Z,9.00
2023-05-13T22:24:28.833Z,9.00
2023-05-13T22:26:55.568Z,9.00
2023-05-13T22:29:22.248Z,9.00
2023-05-13T22:31:48.986Z,9.00
2023-05-13T22:34:15.619Z,9.00
2023-05-13T22:36:43.962Z,9.00
2023-05-13T22:39:12.210Z,9.00
2023-05-13T22:41:38.873Z,9.00
2023-05-13T22:44:05.618Z,9.00
2023-05-13T22:46:32.478Z,9.00
2023-05-13T22:48:59.216Z,9.00
2023-05-13T22:51:25.846Z,8.90
2023-05-13T22:53:52.461Z,8.90
2023-05-13T22:56:19.107Z,8.90
2023-05-13T22:58:45.960Z,8.80
2023-05-13T23:01:12.767Z,8.80
2023-05-13T23:03:39.542Z,8.80
2023-05-13T23:06:06.339Z,8.70
2023-05-13T23:08:33.100Z,8.70
2023-05-13T23:10:59.747Z,8.60
2023-05-13T23:13:26.373Z,8.60
2023-05-13T23:15:53.132Z,8.50
2023-05-13T23:18:19.784Z,8.50
2023-05-13T23:20:50.957Z,8.40
2023-05-13T23:23:17.715Z,8.40
2023-05-13T23:25:45.725Z,8.40
2023-05-13T23:28:12.734Z,8.40
2023-05-13T23:30:40.022Z,8.30
2023-05-13T23:33:07.206Z,8.20
2023-05-13T23:35:34.126Z,8.20
2023-05-13T23:38:01.399Z,8.20
2023-05-13T23:40:28.238Z,8.10
2023-05-13T23:42:54.904Z,8.10
2023-05-13T23:45:21.639Z,8.00
2023-05-13T23:47:51.316Z,8.00
2023-05-13T23:50:18.011Z,8.00
2023-05-13T23:52:44.625Z,7.90
2023-05-13T23:55:11.288Z,7.90
2023-05-13T23:57:38.215Z,7.90
